createdAt,value
2022-11-25T00:01:13.778Z,10.30
2022-11-25T00:03:42.187Z,7.20
2022-11-25T00:06:14.599Z,9.40
2022-11-25T00:08:42.926Z,7.20
2022-11-25T00:11:11.135Z,9.70
2022-11-25T00:13:38.756Z,9.50
2022-11-25T00:16:09.034Z,6.90
2022-11-25T00:18:36.738Z,7.80
2022-11-25T00:21:11.815Z,6.80
2022-11-25T00:23:39.184Z,9.00
2022-11-25T00:26:08.564Z,7.00
2022-11-25T00:28:35.756Z,7.30
2022-11-25T00:31:30.414Z,9.00
2022-11-25T00:33:58.526Z,6.80
2022-11-25T00:36:36.783Z,11.20
2022-11-25T00:39:13.438Z,8.80
2022-11-25T00:41:59.548Z,6.70
2022-11-25T00:44:36.264Z,8.30
2022-11-25T00:47:14.876Z,7.10
2022-11-25T00:49:47.859Z,7.70
2022-11-25T00:52:18.611Z,7.60
2022-11-25T00:54:48.725Z,7.70
2022-11-25T00:57:18.100Z,7.90
2022-11-25T00:59:45.459Z,6.10
2022-11-25T01:02:13.738Z,7.40
2022-11-25T01:04:41.228Z,7.20
2022-11-25T01:07:08.374Z,7.20
2022-11-25T01:09:35.413Z,6.30
2022-11-25T01:12:05.143Z,7.70
2022-11-25T01:14:32.901Z,6.70
2022-11-25T01:16:59.989Z,6.60
2022-11-25T01:19:27.236Z,7.20
2022-11-25T01:21:54.305Z,5.50
2022-11-25T01:24:22.725Z,9.00
2022-11-25T01:26:55.017Z,6.50
2022-11-25T01:29:22.590Z,5.70
2022-11-25T01:31:50.041Z,8.20
2022-11-25T01:34:23.171Z,7.10
2022-11-25T01:36:50.451Z,6.00
2022-11-25T01:39:20.649Z,7.00
2022-11-25T01:41:48.984Z,6.90
2022-11-25T01:44:17.609Z,7.10
2022-11-25T01:47:06.327Z,7.20
2022-11-25T01:50:07.269Z,5.90
2022-11-25T01:52:44.893Z,6.60
2022-11-25T01:55:18.323Z,5.80
2022-11-25T01:57:52.525Z,6.10
2022-11-25T02:00:20.389Z,5.70
2022-11-25T02:02:49.979Z,7.80
2022-11-25T02:05:20.922Z,4.70
2022-11-25T02:07:51.592Z,5.10
2022-11-25T02:10:26.851Z,5.80
2022-11-25T02:12:54.489Z,4.00
2022-11-25T02:15:22.427Z,6.10
2022-11-25T02:17:50.057Z,7.20
2022-11-25T02:20:22.864Z,5.00
2022-11-25T02:23:15.157Z,5.70
2022-11-25T02:25:45.215Z,4.00
2022-11-25T02:28:20.490Z,5.00
2022-11-25T02:30:48.314Z,6.60
2022-11-25T02:33:16.340Z,4.00
2022-11-25T02:35:49.828Z,6.90
2022-11-25T02:38:27.863Z,5.20
2022-11-25T02:41:01.316Z,4.60
2022-11-25T02:43:30.704Z,5.00
2022-11-25T02:46:03.443Z,7.10
2022-11-25T02:49:06.854Z,4.50
2022-11-25T02:51:23.413Z,6.60
2022-11-25T02:53:50.894Z,7.10
2022-11-25T02:56:22.291Z,6.30
2022-11-25T02:58:49.298Z,4.00
2022-11-25T03:01:16.710Z,5.70
2022-11-25T03:03:44.156Z,5.50
2022-11-25T03:06:11.371Z,5.20
2022-11-25T03:08:39.249Z,6.80
2022-11-25T03:11:08.251Z,5.50
2022-11-25T03:13:35.543Z,5.00
2022-11-25T03:16:03.643Z,5.50
2022-11-25T03:18:30.773Z,6.50
2022-11-25T03:20:59.117Z,4.50
2022-11-25T03:23:26.426Z,7.90
2022-11-25T03:25:57.456Z,4.70
2022-11-25T03:28:24.649Z,5.90
2022-11-25T03:30:51.819Z,7.60
2022-11-25T03:33:19.006Z,4.10
2022-11-25T03:35:48.610Z,4.30
2022-11-25T03:38:15.602Z,3.20
2022-11-25T03:40:42.625Z,5.50
2022-11-25T03:43:09.844Z,5.10
2022-11-25T03:45:37.701Z,4.90
2022-11-25T03:48:05.843Z,4.20
2022-11-25T03:50:32.778Z,4.40
2022-11-25T03:52:59.683Z,6.10
2022-11-25T03:55:27.073Z,4.00
2022-11-25T03:57:55.091Z,5.60
2022-11-25T04:00:23.962Z,3.10
2022-11-25T04:02:53.701Z,4.00
2022-11-25T04:05:20.890Z,4.60
2022-11-25T04:07:51.244Z,7.10
2022-11-25T04:10:21.847Z,6.10
2022-11-25T04:12:48.856Z,3.40
2022-11-25T04:15:19.474Z,4.70
2022-11-25T04:17:50.280Z,5.20
2022-11-25T04:20:17.759Z,4.80
2022-11-25T04:22:47.989Z,5.80
2022-11-25T04:25:15.130Z,3.10
2022-11-25T04:27:42.795Z,4.30
2022-11-25T04:30:11.194Z,5.60
2022-11-25T04:32:39.545Z,4.20
2022-11-25T04:35:07.683Z,4.70
2022-11-25T04:37:35.017Z,4.50
2022-11-25T04:40:02.132Z,4.70
2022-11-25T04:42:33.138Z,3.50
2022-11-25T04:47:52.361Z,4.50
2022-11-25T04:50:21.994Z,3.50
2022-11-25T04:53:03.281Z,4.50
2022-11-25T04:55:31.331Z,5.00
2022-11-25T04:57:59.847Z,4.50
2022-11-25T05:00:27.187Z,3.00
2022-11-25T05:02:54.225Z,3.40
2022-11-25T05:05:21.494Z,4.90
2022-11-25T05:07:48.496Z,3.10
2022-11-25T05:10:16.126Z,3.40
2022-11-25T05:12:46.340Z,4.30
2022-11-25T05:15:16.523Z,4.20
2022-11-25T05:17:45.802Z,3.80
2022-11-25T05:20:13.549Z,3.90
2022-11-25T05:22:40.613Z,5.30
2022-11-25T05:25:10.951Z,3.80
2022-11-25T05:27:47.844Z,3.40
2022-11-25T05:30:15.531Z,3.50
2022-11-25T05:32:43.034Z,4.20
2022-11-25T05:35:11.451Z,3.40
2022-11-25T05:37:39.837Z,3.40
2022-11-25T05:40:07.486Z,4.50
2022-11-25T05:42:52.221Z,3.70
2022-11-25T05:45:19.543Z,2.90
2022-11-25T05:47:46.586Z,4.00
2022-11-25T05:50:17.068Z,4.30
2022-11-25T05:53:01.491Z,5.50
2022-11-25T05:55:28.740Z,4.70
2022-11-25T05:57:56.099Z,4.40
2022-11-25T06:00:26.779Z,3.80
2022-11-25T06:02:54.266Z,2.80
2022-11-25T06:05:22.792Z,2.90
2022-11-25T06:07:51.253Z,3.50
2022-11-25T06:10:19.153Z,2.90
2022-11-25T06:12:46.547Z,4.50
2022-11-25T06:15:15.114Z,4.90
2022-11-25T06:17:42.337Z,6.20
2022-11-25T06:20:22.662Z,3.10
2022-11-25T06:22:49.576Z,5.40
2022-11-25T06:25:20.692Z,5.10
2022-11-25T06:28:11.849Z,5.50
2022-11-25T06:30:35.740Z,4.50
2022-11-25T06:33:20.180Z,5.50
2022-11-25T06:35:47.529Z,5.60
2022-11-25T06:38:14.580Z,4.30
2022-11-25T06:40:41.695Z,5.70
2022-11-25T06:43:08.627Z,4.80
2022-11-25T06:45:35.496Z,4.00
2022-11-25T06:48:02.568Z,4.10
2022-11-25T06:50:29.574Z,5.30
2022-11-25T06:52:56.500Z,3.10
2022-11-25T06:55:23.461Z,5.60
2022-11-25T06:57:53.305Z,2.90
2022-11-25T07:00:23.008Z,7.00
2022-11-25T07:02:50.023Z,5.20
2022-11-25T07:05:17.085Z,4.90
2022-11-25T07:07:44.084Z,3.40
2022-11-25T07:10:11.246Z,5.10
2022-11-25T07:12:38.252Z,6.70
2022-11-25T07:15:05.866Z,6.40
2022-11-25T07:17:32.818Z,5.40
2022-11-25T07:19:59.751Z,5.40
2022-11-25T07:22:26.671Z,2.70
2022-11-25T07:24:53.694Z,3.80
2022-11-25T07:27:20.844Z,4.20
2022-11-25T07:30:18.652Z,4.00
2022-11-25T07:32:36.234Z,4.30
2022-11-25T07:35:03.850Z,4.10
2022-11-25T07:37:31.005Z,3.80
2022-11-25T07:39:57.943Z,3.70
2022-11-25T07:42:24.975Z,5.50
2022-11-25T07:44:52.164Z,2.90
2022-11-25T07:47:41.137Z,4.20
2022-11-25T07:50:08.875Z,3.10
2022-11-25T07:52:39.088Z,9.70
2022-11-25T07:55:06.579Z,2.90
2022-11-25T07:57:33.634Z,4.80
2022-11-25T08:00:00.877Z,3.30
2022-11-25T08:02:27.941Z,4.90
2022-11-25T08:04:54.968Z,3.70
2022-11-25T08:07:21.918Z,4.40
2022-11-25T08:09:49.064Z,3.50
2022-11-25T08:12:16.008Z,3.00
2022-11-25T08:14:42.908Z,5.40
2022-11-25T08:17:10.421Z,4.40
2022-11-25T08:19:37.679Z,4.10
2022-11-25T08:22:06.657Z,5.10
2022-11-25T08:24:33.916Z,3.30
2022-11-25T08:27:02.201Z,3.00
2022-11-25T08:29:29.251Z,4.90
2022-11-25T08:31:56.389Z,3.80
2022-11-25T08:34:24.874Z,4.10
2022-11-25T08:36:54.171Z,4.40
2022-11-25T08:39:51.053Z,3.00
2022-11-25T08:42:09.812Z,3.80
2022-11-25T08:44:37.638Z,3.30
2022-11-25T08:47:04.789Z,3.40
2022-11-25T08:49:36.031Z,3.90
2022-11-25T08:52:07.592Z,3.90
2022-11-25T08:54:34.627Z,3.80
2022-11-25T08:57:01.683Z,2.40
2022-11-25T08:59:28.733Z,5.00
2022-11-25T09:01:55.860Z,3.60
2022-11-25T09:04:23.444Z,3.60
2022-11-25T09:06:50.489Z,4.00
2022-11-25T09:09:17.692Z,3.60
2022-11-25T09:11:44.878Z,2.60
2022-11-25T09:14:12.031Z,3.60
2022-11-25T09:16:39.167Z,3.20
2022-11-25T09:19:06.851Z,4.10
2022-11-25T09:21:34.242Z,3.40
2022-11-25T09:24:01.458Z,3.20
2022-11-25T09:26:32.482Z,3.70
2022-11-25T09:28:59.499Z,3.10
2022-11-25T09:31:26.576Z,5.00
2022-11-25T09:33:53.588Z,3.30
2022-11-25T09:36:21.874Z,4.60
2022-11-25T09:38:49.455Z,6.00
2022-11-25T09:41:57.049Z,5.00
2022-11-25T09:45:07.099Z,4.60
2022-11-25T09:48:01.995Z,7.20
2022-11-25T09:50:53.474Z,4.30
2022-11-25T09:53:29.328Z,5.50
2022-11-25T09:56:02.807Z,4.20
2022-11-25T09:58:37.474Z,3.30
2022-11-25T10:01:07.348Z,4.30
2022-11-25T10:03:58.556Z,3.80
2022-11-25T10:06:31.595Z,3.50
2022-11-25T10:09:04.700Z,4.50
2022-11-25T10:11:47.777Z,5.90
2022-11-25T10:14:36.324Z,4.50
2022-11-25T10:17:18.226Z,4.10
2022-11-25T10:19:55.223Z,4.90
2022-11-25T10:22:26.433Z,5.30
2022-11-25T10:24:59.151Z,3.00
2022-11-25T10:27:50.562Z,4.50
2022-11-25T10:30:32.801Z,4.50
2022-11-25T10:33:12.818Z,5.60
2022-11-25T10:35:46.676Z,3.80
2022-11-25T10:38:22.729Z,4.90
2022-11-25T10:40:52.792Z,2.80
2022-11-25T10:43:20.062Z,2.60
2022-11-25T10:45:58.963Z,3.70
2022-11-25T10:48:34.584Z,3.50
2022-11-25T10:51:13.206Z,3.00
2022-11-25T10:53:40.151Z,2.60
2022-11-25T10:56:19.018Z,2.80
2022-11-25T10:58:46.645Z,2.40
2022-11-25T11:01:25.589Z,2.40
2022-11-25T11:04:05.999Z,4.50
2022-11-25T11:06:36.757Z,4.20
2022-11-25T11:09:04.451Z,3.70
2022-11-25T11:11:31.833Z,2.80
2022-11-25T11:14:22.406Z,2.50
2022-11-25T11:16:58.167Z,3.80
2022-11-25T11:19:31.130Z,3.10
2022-11-25T11:22:16.109Z,3.70
2022-11-25T11:24:43.068Z,3.70
2022-11-25T11:27:09.996Z,4.70
2022-11-25T11:29:37.411Z,3.70
2022-11-25T11:32:07.672Z,3.40
2022-11-25T11:34:34.915Z,3.70
2022-11-25T11:37:39.193Z,3.80
2022-11-25T11:40:09.107Z,3.10
2022-11-25T11:42:54.821Z,3.60
2022-11-25T11:45:24.799Z,2.50
2022-11-25T11:48:16.788Z,2.80
2022-11-25T11:50:53.384Z,2.60
2022-11-25T11:53:41.476Z,3.30
2022-11-25T11:56:35.411Z,3.50
2022-11-25T11:59:21.139Z,2.20
2022-11-25T12:02:20.672Z,4.30
2022-11-25T12:05:02.897Z,3.50
2022-11-25T12:08:02.889Z,3.60
2022-11-25T12:10:45.128Z,3.40
2022-11-25T12:13:14.830Z,3.10
2022-11-25T12:16:00.798Z,3.10
2022-11-25T12:18:46.699Z,3.00
2022-11-25T12:21:28.721Z,3.40
2022-11-25T12:24:14.168Z,3.60
2022-11-25T12:26:50.289Z,4.00
2022-11-25T12:29:35.718Z,2.90
2022-11-25T12:32:21.710Z,2.30
2022-11-25T12:35:17.807Z,3.60
2022-11-25T12:38:39.135Z,3.00
2022-11-25T12:41:30.931Z,3.60
2022-11-25T12:44:03.753Z,2.80
2022-11-25T12:46:44.736Z,2.60
2022-11-25T12:49:19.341Z,1.90
2022-11-25T12:51:46.261Z,3.20
2022-11-25T12:54:18.983Z,2.60
2022-11-25T12:56:57.164Z,2.50
2022-11-25T12:59:46.306Z,4.70
2022-11-25T13:02:38.038Z,2.30
2022-11-25T13:05:40.657Z,3.40
2022-11-25T13:08:41.656Z,3.20
2022-11-25T13:11:29.272Z,2.90
2022-11-25T13:14:08.353Z,3.30
2022-11-25T13:16:36.092Z,5.20
2022-11-25T13:19:11.952Z,3.30
2022-11-25T13:21:56.201Z,3.70
2022-11-25T13:24:42.724Z,2.90
2022-11-25T13:27:36.116Z,2.80
2022-11-25T13:30:04.218Z,3.70
2022-11-25T13:32:40.570Z,5.00
2022-11-25T13:35:22.863Z,4.40
2022-11-25T13:37:50.650Z,2.80
2022-11-25T13:40:32.325Z,4.10
2022-11-25T13:43:00.645Z,4.60
2022-11-25T13:45:43.748Z,4.00
2022-11-25T13:48:21.182Z,2.30
2022-11-25T13:51:20.606Z,2.50
2022-11-25T13:53:38.318Z,3.70
2022-11-25T13:56:32.430Z,2.80
2022-11-25T13:59:11.801Z,3.30
2022-11-25T14:01:41.092Z,2.70
2022-11-25T14:04:11.072Z,4.60
2022-11-25T14:06:58.276Z,2.60
2022-11-25T14:09:41.619Z,2.70
2022-11-25T14:12:27.197Z,3.20
2022-11-25T14:15:21.345Z,3.80
2022-11-25T14:18:06.501Z,4.30
2022-11-25T14:20:36.271Z,4.10
2022-11-25T14:23:09.201Z,3.60
2022-11-25T14:25:57.955Z,2.00
2022-11-25T14:28:36.292Z,4.50
2022-11-25T14:31:15.083Z,2.50
2022-11-25T14:34:18.003Z,4.50
2022-11-25T14:36:58.764Z,3.50
2022-11-25T14:39:36.771Z,3.60
2022-11-25T14:42:10.892Z,3.60
2022-11-25T14:44:52.527Z,3.10
2022-11-25T14:47:24.249Z,1.90
2022-11-25T14:50:18.760Z,2.60
2022-11-25T14:52:47.513Z,3.10
2022-11-25T14:55:27.050Z,5.10
2022-11-25T14:57:54.524Z,2.70
2022-11-25T15:00:22.167Z,3.40
2022-11-25T15:03:01.376Z,5.10
2022-11-25T15:05:39.706Z,2.60
2022-11-25T15:08:18.122Z,3.20
2022-11-25T15:11:00.293Z,3.50
2022-11-25T15:13:40.224Z,4.30
2022-11-25T15:16:10.921Z,5.80
2022-11-25T15:18:39.470Z,3.90
2022-11-25T15:21:06.791Z,5.40
2022-11-25T15:23:38.041Z,3.80
2022-11-25T15:26:25.216Z,3.20
2022-11-25T15:29:01.168Z,5.80
2022-11-25T15:31:32.441Z,4.90
2022-11-25T15:34:05.060Z,3.40
2022-11-25T15:36:32.118Z,6.90
2022-11-25T15:39:20.800Z,3.20
2022-11-25T15:41:49.683Z,5.70
2022-11-25T15:44:26.870Z,9.30
2022-11-25T15:46:59.642Z,3.20
2022-11-25T15:49:27.233Z,5.80
2022-11-25T15:51:59.592Z,4.40
2022-11-25T15:54:38.616Z,5.40
2022-11-25T15:57:32.296Z,5.00
2022-11-25T15:59:59.323Z,2.80
2022-11-25T16:02:58.025Z,6.00
2022-11-25T16:05:32.237Z,7.10
2022-11-25T16:08:19.032Z,4.40
2022-11-25T16:10:46.063Z,4.80
2022-11-25T16:13:29.078Z,6.80
2022-11-25T16:16:05.600Z,3.60
2022-11-25T16:18:57.592Z,4.80
2022-11-25T16:21:36.692Z,3.10
2022-11-25T16:24:06.775Z,5.10
2022-11-25T16:26:37.954Z,4.30
2022-11-25T16:29:18.255Z,5.90
2022-11-25T16:31:45.764Z,3.40
2022-11-25T16:34:15.816Z,4.50
2022-11-25T16:36:42.903Z,6.90
2022-11-25T16:39:10.130Z,4.30
2022-11-25T16:41:37.886Z,3.60
2022-11-25T16:44:13.847Z,5.40
2022-11-25T16:46:40.776Z,6.00
2022-11-25T16:49:15.519Z,3.50
2022-11-25T16:51:43.073Z,4.20
2022-11-25T16:54:10.837Z,6.20
2022-11-25T16:56:41.083Z,9.00
2022-11-25T16:59:14.253Z,6.10
2022-11-25T17:01:41.490Z,4.40
2022-11-25T17:04:12.447Z,6.80
2022-11-25T17:06:39.949Z,7.20
2022-11-25T17:09:07.597Z,4.40
2022-11-25T17:11:46.878Z,9.80
2022-11-25T17:14:21.045Z,6.20
2022-11-25T17:16:48.368Z,4.80
2022-11-25T17:19:16.761Z,5.70
2022-11-25T17:21:45.765Z,6.90
2022-11-25T17:24:30.852Z,6.80
2022-11-25T17:27:03.232Z,8.80
2022-11-25T17:29:43.850Z,6.70
2022-11-25T17:32:15.696Z,7.50
2022-11-25T17:34:42.672Z,7.10
2022-11-25T17:37:15.545Z,7.40
2022-11-25T17:39:42.706Z,10.30
2022-11-25T17:42:16.066Z,9.70
2022-11-25T17:44:45.270Z,7.30
2022-11-25T17:47:17.076Z,4.30
2022-11-25T17:49:45.952Z,8.80
2022-11-25T17:52:12.966Z,6.30
2022-11-25T17:54:40.329Z,7.70
2022-11-25T17:57:12.120Z,5.60
2022-11-25T17:59:39.192Z,8.30
2022-11-25T18:02:18.869Z,5.70
2022-11-25T18:04:46.297Z,4.60
2022-11-25T18:07:13.309Z,7.60
2022-11-25T18:09:40.661Z,6.90
2022-11-25T18:12:36.718Z,8.10
2022-11-25T18:15:08.358Z,6.20
2022-11-25T18:17:37.211Z,7.80
2022-11-25T18:20:33.043Z,7.40
2022-11-25T18:23:01.181Z,7.00
2022-11-25T18:25:31.836Z,6.30
2022-11-25T18:28:00.752Z,8.30
2022-11-25T18:30:31.008Z,7.00
2022-11-25T18:32:58.529Z,8.00
2022-11-25T18:35:32.588Z,7.10
2022-11-25T18:38:02.673Z,5.40
2022-11-25T18:40:30.455Z,8.40
2022-11-25T18:43:01.523Z,7.40
2022-11-25T18:45:33.682Z,7.90
2022-11-25T18:48:00.787Z,6.90
2022-11-25T18:50:28.897Z,8.30
2022-11-25T18:52:55.850Z,8.20
2022-11-25T18:55:23.667Z,8.10
2022-11-25T18:57:52.256Z,7.60
2022-11-25T19:00:37.534Z,5.00
2022-11-25T19:03:04.708Z,8.20
2022-11-25T19:05:33.789Z,6.40
2022-11-25T19:08:02.100Z,7.90
2022-11-25T19:10:32.263Z,5.30
2022-11-25T19:13:03.004Z,8.00
2022-11-25T19:15:30.052Z,5.60
2022-11-25T19:18:05.510Z,4.90
2022-11-25T19:20:32.957Z,5.90
2022-11-25T19:23:12.093Z,8.60
2022-11-25T19:25:39.221Z,7.30
2022-11-25T19:28:06.192Z,8.80
2022-11-25T19:30:33.423Z,8.70
2022-11-25T19:33:03.843Z,7.80
2022-11-25T19:35:37.274Z,12.30
2022-11-25T19:38:18.791Z,7.30
2022-11-25T19:40:45.905Z,6.10
2022-11-25T19:43:12.935Z,7.20
2022-11-25T19:45:40.586Z,6.50
2022-11-25T19:48:13.791Z,8.90
2022-11-25T19:50:41.617Z,6.70
2022-11-25T19:53:20.894Z,7.00
2022-11-25T19:55:49.074Z,10.30
2022-11-25T19:58:16.130Z,8.20
2022-11-25T20:00:45.492Z,7.80
2022-11-25T20:03:22.313Z,5.90
2022-11-25T20:05:51.278Z,8.30
2022-11-25T20:08:24.898Z,7.40
2022-11-25T20:10:53.347Z,7.90
2022-11-25T20:13:23.032Z,7.20
2022-11-25T20:15:50.779Z,9.80
2022-11-25T20:18:22.025Z,6.40
2022-11-25T20:20:56.223Z,6.30
2022-11-25T20:23:26.266Z,9.80
2022-11-25T20:25:53.667Z,8.90
2022-11-25T20:28:23.574Z,6.80
2022-11-25T20:30:52.282Z,6.80
2022-11-25T20:33:23.994Z,5.90
2022-11-25T20:35:58.569Z,8.80
2022-11-25T20:38:28.800Z,7.30
2022-11-25T20:40:58.831Z,4.60
2022-11-25T20:43:30.410Z,6.90
2022-11-25T20:45:58.559Z,6.90
2022-11-25T20:48:26.428Z,5.50
2022-11-25T20:50:53.809Z,6.00
2022-11-25T20:53:22.492Z,8.90
2022-11-25T20:55:49.845Z,7.80
2022-11-25T20:58:25.896Z,7.40
2022-11-25T21:00:57.600Z,5.80
2022-11-25T21:03:25.880Z,7.70
2022-11-25T21:05:55.013Z,5.40
2022-11-25T21:08:25.177Z,7.00
2022-11-25T21:10:55.783Z,8.80
2022-11-25T21:13:28.331Z,7.40
2022-11-25T21:15:57.005Z,6.90
2022-11-25T21:18:24.803Z,6.10
2022-11-25T21:20:54.258Z,4.40
2022-11-25T21:23:24.561Z,6.90
2022-11-25T21:25:51.652Z,5.90
2022-11-25T21:28:21.334Z,4.70
2022-11-25T21:30:48.377Z,7.20
2022-11-25T21:33:15.740Z,7.10
2022-11-25T21:35:45.603Z,6.30
2022-11-25T21:38:22.912Z,8.70
2022-11-25T21:40:58.077Z,5.60
2022-11-25T21:43:28.731Z,5.30
2022-11-25T21:46:05.036Z,7.60
2022-11-25T21:48:32.598Z,5.90
2022-11-25T21:50:59.887Z,6.00
2022-11-25T21:53:27.166Z,5.10
2022-11-25T21:55:54.162Z,6.10
2022-11-25T21:58:26.601Z,4.90
2022-11-25T22:00:56.098Z,5.60
2022-11-25T22:03:24.240Z,4.00
2022-11-25T22:05:51.631Z,4.60
2022-11-25T22:08:18.726Z,7.20
2022-11-25T22:10:50.758Z,7.00
2022-11-25T22:13:27.363Z,4.60
2022-11-25T22:15:57.553Z,5.10
2022-11-25T22:18:30.413Z,4.50
2022-11-25T22:20:57.870Z,6.80
2022-11-25T22:23:25.552Z,5.50
2022-11-25T22:25:53.213Z,5.50
2022-11-25T22:28:25.926Z,7.20
2022-11-25T22:30:55.990Z,4.80
2022-11-25T22:33:33.564Z,5.20
2022-11-25T22:36:01.182Z,6.20
2022-11-25T22:38:29.824Z,6.00
2022-11-25T22:41:00.739Z,7.70
2022-11-25T22:43:45.620Z,6.60
2022-11-25T22:46:12.696Z,7.80
2022-11-25T22:48:39.643Z,6.20
2022-11-25T22:51:16.005Z,4.60
2022-11-25T22:53:42.929Z,4.40
2022-11-25T22:56:20.168Z,7.20
2022-11-25T22:58:47.304Z,5.60
2022-11-25T23:01:16.483Z,6.90
2022-11-25T23:03:44.499Z,8.40
2022-11-25T23:06:14.779Z,4.00
2022-11-25T23:08:41.710Z,5.50
2022-11-25T23:11:16.701Z,7.90
2022-11-25T23:13:44.017Z,5.40
2022-11-25T23:16:11.411Z,5.00
2022-11-25T23:18:46.695Z,5.20
2022-11-25T23:21:19.971Z,5.20
2022-11-25T23:23:47.282Z,6.00
2022-11-25T23:26:15.140Z,4.30
2022-11-25T23:28:42.359Z,4.30
2022-11-25T23:31:13.865Z,6.70
2022-11-25T23:33:44.822Z,6.20
2022-11-25T23:36:20.971Z,4.80
2022-11-25T23:39:11.327Z,5.40
2022-11-25T23:41:38.476Z,7.00
2022-11-25T23:44:34.528Z,4.60
2022-11-25T23:47:04.406Z,5.10
2022-11-25T23:49:37.226Z,5.70
2022-11-25T23:52:08.195Z,5.00
2022-11-25T23:54:40.819Z,5.30
2022-11-25T23:57:19.526Z,6.50
2022-11-25T23:59:47.444Z,5.00
